sensor_id;sensor_type;location;lat;lon;timestamp;P1;durP1;ratioP1;P2;durP2;ratioP2
22425;SDS011;11380;50.822;15.790;2023-05-19T00:03:54;56.20;;;50.75;;
22425;SDS011;11380;50.822;15.790;2023-05-19T00:09:07;56.33;;;50.77;;
22425;SDS011;11380;50.822;15.790;2023-05-19T00:14:15;56.06;;;50.80;;
22425;SDS011;11380;50.822;15.790;2023-05-19T00:19:24;56.28;;;50.67;;
22425;SDS011;11380;50.822;15.790;2023-05-19T00:24:34;56.43;;;50.97;;
22425;SDS011;11380;50.822;15.790;2023-05-19T00:29:41;55.23;;;49.90;;
22425;SDS011;11380;50.822;15.790;2023-05-19T00:34:48;54.77;;;49.50;;
22425;SDS011;11380;50.822;15.790;2023-05-19T00:39:56;54.30;;;49.17;;
22425;SDS011;11380;50.822;15.790;2023-05-19T00:45:02;54.37;;;49.10;;
22425;SDS011;11380;50.822;15.790;2023-05-19T00:50:12;56.30;;;50.75;;
22425;SDS011;11380;50.822;15.790;2023-05-19T00:55:20;54.60;;;49.40;;
22425;SDS011;11380;50.822;15.790;2023-05-19T01:00:30;53.50;;;48.43;;
22425;SDS011;11380;50.822;15.790;2023-05-19T01:05:41;53.53;;;48.53;;
22425;SDS011;11380;50.822;15.790;2023-05-19T01:10:49;54.13;;;48.97;;
22425;SDS011;11380;50.822;15.790;2023-05-19T01:16:00;53.27;;;48.37;;
22425;SDS011;11380;50.822;15.790;2023-05-19T01:27:23;52.83;;;47.80;;
22425;SDS011;11380;50.822;15.790;2023-05-19T01:32:35;53.37;;;48.13;;
22425;SDS011;11380;50.822;15.790;2023-05-19T01:37:44;53.27;;;48.30;;
22425;SDS011;11380;50.822;15.790;2023-05-19T01:42:52;53.40;;;48.50;;
22425;SDS011;11380;50.822;15.790;2023-05-19T01:48:02;52.73;;;48.03;;
22425;SDS011;11380;50.822;15.790;2023-05-19T01:53:11;53.37;;;48.27;;
22425;SDS011;11380;50.822;15.790;2023-05-19T01:58:24;52.78;;;47.75;;
22425;SDS011;11380;50.822;15.790;2023-05-19T02:03:42;52.50;;;47.80;;
22425;SDS011;11380;50.822;15.790;2023-05-19T02:09:17;52.93;;;48.02;;
22425;SDS011;11380;50.822;15.790;2023-05-19T02:14:38;52.63;;;47.83;;
22425;SDS011;11380;50.822;15.790;2023-05-19T02:19:49;52.40;;;47.47;;
22425;SDS011;11380;50.822;15.790;2023-05-19T02:24:57;51.80;;;47.20;;
22425;SDS011;11380;50.822;15.790;2023-05-19T02:30:04;53.03;;;47.93;;
22425;SDS011;11380;50.822;15.790;2023-05-19T02:35:13;52.17;;;47.50;;
22425;SDS011;11380;50.822;15.790;2023-05-19T02:45:26;52.83;;;48.00;;
22425;SDS011;11380;50.822;15.790;2023-05-19T02:50:33;52.58;;;47.83;;
22425;SDS011;11380;50.822;15.790;2023-05-19T02:55:41;52.63;;;47.83;;
22425;SDS011;11380;50.822;15.790;2023-05-19T03:00:48;53.00;;;48.03;;
22425;SDS011;11380;50.822;15.790;2023-05-19T03:05:55;53.20;;;48.20;;
22425;SDS011;11380;50.822;15.790;2023-05-19T03:11:03;52.50;;;47.70;;
22425;SDS011;11380;50.822;15.790;2023-05-19T03:16:12;52.13;;;47.43;;
22425;SDS011;11380;50.822;15.790;2023-05-19T03:21:19;51.90;;;47.20;;
22425;SDS011;11380;50.822;15.790;2023-05-19T03:26:27;52.37;;;47.50;;
22425;SDS011;11380;50.822;15.790;2023-05-19T03:31:34;51.80;;;47.20;;
22425;SDS011;11380;50.822;15.790;2023-05-19T03:36:42;52.73;;;47.83;;
22425;SDS011;11380;50.822;15.790;2023-05-19T03:41:49;52.90;;;48.07;;
22425;SDS011;11380;50.822;15.790;2023-05-19T03:46:57;52.37;;;47.57;;
22425;SDS011;11380;50.822;15.790;2023-05-19T03:52:04;52.17;;;47.43;;
22425;SDS011;11380;50.822;15.790;2023-05-19T03:57:13;52.13;;;47.53;;
22425;SDS011;11380;50.822;15.790;2023-05-19T04:02:20;53.37;;;48.37;;
22425;SDS011;11380;50.822;15.790;2023-05-19T04:07:28;53.27;;;48.37;;
22425;SDS011;11380;50.822;15.790;2023-05-19T04:12:37;52.73;;;48.03;;
22425;SDS011;11380;50.822;15.790;2023-05-19T04:17:45;54.00;;;48.90;;
22425;SDS011;11380;50.822;15.790;2023-05-19T04:22:52;55.50;;;50.20;;
22425;SDS011;11380;50.822;15.790;2023-05-19T04:27:59;54.70;;;49.60;;
22425;SDS011;11380;50.822;15.790;2023-05-19T04:33:07;53.90;;;48.80;;
22425;SDS011;11380;50.822;15.790;2023-05-19T04:38:15;54.80;;;49.40;;
22425;SDS011;11380;50.822;15.790;2023-05-19T04:43:23;54.70;;;49.37;;
22425;SDS011;11380;50.822;15.790;2023-05-19T04:48:30;55.17;;;49.77;;
22425;SDS011;11380;50.822;15.790;2023-05-19T04:53:38;55.70;;;50.20;;
22425;SDS011;11380;50.822;15.790;2023-05-19T04:58:48;54.90;;;49.60;;
22425;SDS011;11380;50.822;15.790;2023-05-19T05:03:56;55.53;;;50.13;;
22425;SDS011;11380;50.822;15.790;2023-05-19T05:09:06;55.63;;;49.93;;
22425;SDS011;11380;50.822;15.790;2023-05-19T05:14:14;54.27;;;49.07;;
22425;SDS011;11380;50.822;15.790;2023-05-19T05:19:22;57.88;;;52.10;;
22425;SDS011;11380;50.822;15.790;2023-05-19T05:24:31;56.43;;;50.60;;
22425;SDS011;11380;50.822;15.790;2023-05-19T05:29:39;54.20;;;48.90;;
22425;SDS011;11380;50.822;15.790;2023-05-19T05:34:47;54.90;;;48.83;;
22425;SDS011;11380;50.822;15.790;2023-05-19T05:39:55;53.43;;;48.23;;
22425;SDS011;11380;50.822;15.790;2023-05-19T05:45:03;52.86;;;47.90;;
22425;SDS011;11380;50.822;15.790;2023-05-19T05:50:12;54.10;;;48.60;;
22425;SDS011;11380;50.822;15.790;2023-05-19T05:55:21;54.23;;;48.77;;
22425;SDS011;11380;50.822;15.790;2023-05-19T06:00:28;53.42;;;48.22;;
22425;SDS011;11380;50.822;15.790;2023-05-19T06:05:38;53.93;;;48.40;;
22425;SDS011;11380;50.822;15.790;2023-05-19T06:10:46;54.00;;;48.67;;
22425;SDS011;11380;50.822;15.790;2023-05-19T06:15:53;54.60;;;48.80;;
22425;SDS011;11380;50.822;15.790;2023-05-19T06:21:02;53.83;;;48.63;;
22425;SDS011;11380;50.822;15.790;2023-05-19T06:26:11;55.34;;;49.84;;
22425;SDS011;11380;50.822;15.790;2023-05-19T06:31:19;53.50;;;48.20;;
22425;SDS011;11380;50.822;15.790;2023-05-19T06:36:27;53.93;;;48.63;;
22425;SDS011;11380;50.822;15.790;2023-05-19T06:41:34;54.93;;;49.30;;
22425;SDS011;11380;50.822;15.790;2023-05-19T06:46:41;55.07;;;49.57;;
22425;SDS011;11380;50.822;15.790;2023-05-19T06:51:49;54.70;;;49.30;;
22425;SDS011;11380;50.822;15.790;2023-05-19T06:56:56;54.47;;;49.07;;
22425;SDS011;11380;50.822;15.790;2023-05-19T07:02:04;55.90;;;50.10;;
22425;SDS011;11380;50.822;15.790;2023-05-19T07:07:13;55.77;;;50.20;;
22425;SDS011;11380;50.822;15.790;2023-05-19T07:12:22;55.00;;;49.48;;
22425;SDS011;11380;50.822;15.790;2023-05-19T07:17:29;55.20;;;49.80;;
22425;SDS011;11380;50.822;15.790;2023-05-19T07:22:37;56.37;;;50.67;;
22425;SDS011;11380;50.822;15.790;2023-05-19T07:27:44;55.83;;;50.03;;
22425;SDS011;11380;50.822;15.790;2023-05-19T07:32:52;56.13;;;50.43;;
22425;SDS011;11380;50.822;15.790;2023-05-19T07:37:59;54.93;;;49.37;;
22425;SDS011;11380;50.822;15.790;2023-05-19T07:43:07;55.97;;;50.37;;
22425;SDS011;11380;50.822;15.790;2023-05-19T07:48:15;55.30;;;49.90;;
22425;SDS011;11380;50.822;15.790;2023-05-19T07:58:29;55.27;;;49.87;;
22425;SDS011;11380;50.822;15.790;2023-05-19T08:03:36;56.33;;;50.63;;
22425;SDS011;11380;50.822;15.790;2023-05-19T08:08:43;56.20;;;50.30;;
22425;SDS011;11380;50.822;15.790;2023-05-19T08:13:51;56.80;;;51.10;;
22425;SDS011;11380;50.822;15.790;2023-05-19T08:18:58;56.30;;;50.40;;
22425;SDS011;11380;50.822;15.790;2023-05-19T08:24:07;57.00;;;51.07;;
22425;SDS011;11380;50.822;15.790;2023-05-19T08:29:16;56.80;;;51.00;;
22425;SDS011;11380;50.822;15.790;2023-05-19T08:34:23;57.80;;;51.80;;
22425;SDS011;11380;50.822;15.790;2023-05-19T08:39:31;56.98;;;51.28;;
22425;SDS011;11380;50.822;15.790;2023-05-19T08:44:42;58.03;;;52.03;;
22425;SDS011;11380;50.822;15.790;2023-05-19T08:49:50;58.53;;;52.43;;
22425;SDS011;11380;50.822;15.790;2023-05-19T08:55:24;57.63;;;51.73;;
22425;SDS011;11380;50.822;15.790;2023-05-19T09:00:18;58.05;;;52.10;;
22425;SDS011;11380;50.822;15.790;2023-05-19T09:05:25;59.57;;;53.27;;
22425;SDS011;11380;50.822;15.790;2023-05-19T09:10:33;58.73;;;52.63;;
22425;SDS011;11380;50.822;15.790;2023-05-19T09:15:40;59.03;;;53.03;;
22425;SDS011;11380;50.822;15.790;2023-05-19T09:20:49;58.73;;;52.73;;
22425;SDS011;11380;50.822;15.790;2023-05-19T09:26:02;57.03;;;51.30;;
22425;SDS011;11380;50.822;15.790;2023-05-19T09:31:12;58.70;;;52.67;;
22425;SDS011;11380;50.822;15.790;2023-05-19T09:36:19;58.25;;;52.27;;
22425;SDS011;11380;50.822;15.790;2023-05-19T09:41:26;55.78;;;50.28;;
22425;SDS011;11380;50.822;15.790;2023-05-19T09:46:34;57.00;;;51.30;;
22425;SDS011;11380;50.822;15.790;2023-05-19T09:51:41;57.93;;;52.03;;
22425;SDS011;11380;50.822;15.790;2023-05-19T09:56:59;57.27;;;51.57;;
22425;SDS011;11380;50.822;15.790;2023-05-19T10:02:14;57.33;;;51.50;;
22425;SDS011;11380;50.822;15.790;2023-05-19T10:07:24;57.45;;;51.45;;
22425;SDS011;11380;50.822;15.790;2023-05-19T10:12:32;57.03;;;51.40;;
22425;SDS011;11380;50.822;15.790;2023-05-19T10:17:39;57.63;;;51.33;;
22425;SDS011;11380;50.822;15.790;2023-05-19T10:22:48;58.47;;;52.07;;
22425;SDS011;11380;50.822;15.790;2023-05-19T10:27:57;58.30;;;52.30;;
22425;SDS011;11380;50.822;15.790;2023-05-19T10:33:15;57.30;;;51.57;;
22425;SDS011;11380;50.822;15.790;2023-05-19T10:38:36;57.03;;;51.35;;
22425;SDS011;11380;50.822;15.790;2023-05-19T10:49:23;57.93;;;51.75;;
22425;SDS011;11380;50.822;15.790;2023-05-19T10:54:42;56.60;;;50.85;;
22425;SDS011;11380;50.822;15.790;2023-05-19T10:59:54;58.67;;;52.63;;
22425;SDS011;11380;50.822;15.790;2023-05-19T11:05:48;57.83;;;51.83;;
22425;SDS011;11380;50.822;15.790;2023-05-19T11:10:21;58.50;;;52.50;;
22425;SDS011;11380;50.822;15.790;2023-05-19T11:15:32;58.67;;;52.63;;
22425;SDS011;11380;50.822;15.790;2023-05-19T11:20:41;59.53;;;53.15;;
22425;SDS011;11380;50.822;15.790;2023-05-19T11:25:51;58.50;;;52.47;;
22425;SDS011;11380;50.822;15.790;2023-05-19T11:30:58;57.77;;;51.87;;
22425;SDS011;11380;50.822;15.790;2023-05-19T11:36:07;58.73;;;52.63;;
22425;SDS011;11380;50.822;15.790;2023-05-19T11:41:15;57.93;;;52.10;;
22425;SDS011;11380;50.822;15.790;2023-05-19T11:46:25;58.53;;;52.53;;
22425;SDS011;11380;50.822;15.790;2023-05-19T11:51:32;58.33;;;52.53;;
22425;SDS011;11380;50.822;15.790;2023-05-19T11:56:40;57.93;;;52.07;;
22425;SDS011;11380;50.822;15.790;2023-05-19T12:01:49;57.13;;;51.37;;
22425;SDS011;11380;50.822;15.790;2023-05-19T12:06:57;57.43;;;51.63;;
22425;SDS011;11380;50.822;15.790;2023-05-19T12:12:06;58.37;;;52.47;;
22425;SDS011;11380;50.822;15.790;2023-05-19T12:17:18;57.83;;;52.00;;
22425;SDS011;11380;50.822;15.790;2023-05-19T12:22:24;58.43;;;52.23;;
22425;SDS011;11380;50.822;15.790;2023-05-19T12:27:34;57.60;;;51.83;;
22425;SDS011;11380;50.822;15.790;2023-05-19T12:32:41;58.63;;;52.67;;
22425;SDS011;11380;50.822;15.790;2023-05-19T12:37:49;59.17;;;52.97;;
22425;SDS011;11380;50.822;15.790;2023-05-19T12:42:56;57.83;;;51.83;;
22425;SDS011;11380;50.822;15.790;2023-05-19T12:48:07;57.77;;;51.97;;
22425;SDS011;11380;50.822;15.790;2023-05-19T12:53:20;59.07;;;53.07;;
22425;SDS011;11380;50.822;15.790;2023-05-19T12:58:32;58.25;;;52.25;;
22425;SDS011;11380;50.822;15.790;2023-05-19T13:03:39;58.43;;;52.40;;
22425;SDS011;11380;50.822;15.790;2023-05-19T13:08:48;58.40;;;52.43;;
22425;SDS011;11380;50.822;15.790;2023-05-19T13:13:56;58.57;;;52.53;;
22425;SDS011;11380;50.822;15.790;2023-05-19T13:19:03;59.57;;;53.43;;
22425;SDS011;11380;50.822;15.790;2023-05-19T13:24:12;57.77;;;51.77;;
22425;SDS011;11380;50.822;15.790;2023-05-19T13:34:27;57.58;;;51.90;;
22425;SDS011;11380;50.822;15.790;2023-05-19T13:39:34;58.83;;;52.73;;
22425;SDS011;11380;50.822;15.790;2023-05-19T13:44:44;58.53;;;52.67;;
22425;SDS011;11380;50.822;15.790;2023-05-19T13:49:51;58.80;;;52.73;;
22425;SDS011;11380;50.822;15.790;2023-05-19T13:54:59;60.07;;;53.73;;
22425;SDS011;11380;50.822;15.790;2023-05-19T14:00:08;60.07;;;53.93;;
22425;SDS011;11380;50.822;15.790;2023-05-19T14:05:15;73.93;;;54.93;;
22425;SDS011;11380;50.822;15.790;2023-05-19T14:10:23;60.08;;;53.70;;
22425;SDS011;11380;50.822;15.790;2023-05-19T14:15:31;61.03;;;54.33;;
22425;SDS011;11380;50.822;15.790;2023-05-19T14:20:41;58.27;;;52.30;;
22425;SDS011;11380;50.822;15.790;2023-05-19T14:25:50;58.30;;;52.03;;
22425;SDS011;11380;50.822;15.790;2023-05-19T14:30:58;59.03;;;52.93;;
22425;SDS011;11380;50.822;15.790;2023-05-19T14:36:06;57.93;;;52.13;;
22425;SDS011;11380;50.822;15.790;2023-05-19T14:41:14;57.40;;;51.37;;
22425;SDS011;11380;50.822;15.790;2023-05-19T14:46:22;59.73;;;53.08;;
22425;SDS011;11380;50.822;15.790;2023-05-19T14:51:29;59.90;;;53.40;;
22425;SDS011;11380;50.822;15.790;2023-05-19T14:56:36;58.90;;;52.70;;
22425;SDS011;11380;50.822;15.790;2023-05-19T15:01:43;58.40;;;52.23;;
22425;SDS011;11380;50.822;15.790;2023-05-19T15:06:51;59.67;;;53.57;;
22425;SDS011;11380;50.822;15.790;2023-05-19T15:11:59;60.90;;;54.30;;
22425;SDS011;11380;50.822;15.790;2023-05-19T15:17:07;58.17;;;52.30;;
22425;SDS011;11380;50.822;15.790;2023-05-19T15:22:15;59.67;;;53.37;;
22425;SDS011;11380;50.822;15.790;2023-05-19T15:27:23;59.50;;;53.33;;
22425;SDS011;11380;50.822;15.790;2023-05-19T15:32:32;59.30;;;53.10;;
22425;SDS011;11380;50.822;15.790;2023-05-19T15:37:39;58.37;;;52.50;;
22425;SDS011;11380;50.822;15.790;2023-05-19T15:42:47;60.33;;;54.03;;
22425;SDS011;11380;50.822;15.790;2023-05-19T15:47:54;59.33;;;53.30;;
22425;SDS011;11380;50.822;15.790;2023-05-19T15:53:01;59.37;;;53.23;;
22425;SDS011;11380;50.822;15.790;2023-05-19T15:58:12;61.05;;;54.45;;
22425;SDS011;11380;50.822;15.790;2023-05-19T16:03:20;61.13;;;54.42;;
22425;SDS011;11380;50.822;15.790;2023-05-19T16:08:27;60.28;;;53.83;;
22425;SDS011;11380;50.822;15.790;2023-05-19T16:13:34;59.60;;;53.40;;
22425;SDS011;11380;50.822;15.790;2023-05-19T16:18:41;61.27;;;54.87;;
22425;SDS011;11380;50.822;15.790;2023-05-19T16:23:49;62.10;;;55.47;;
22425;SDS011;11380;50.822;15.790;2023-05-19T16:28:57;61.10;;;54.60;;
22425;SDS011;11380;50.822;15.790;2023-05-19T16:34:06;61.43;;;55.17;;
22425;SDS011;11380;50.822;15.790;2023-05-19T16:39:14;62.17;;;55.13;;
22425;SDS011;11380;50.822;15.790;2023-05-19T16:44:21;61.13;;;54.83;;
22425;SDS011;11380;50.822;15.790;2023-05-19T16:49:29;61.60;;;55.20;;
22425;SDS011;11380;50.822;15.790;2023-05-19T16:54:36;61.33;;;54.73;;
22425;SDS011;11380;50.822;15.790;2023-05-19T16:59:43;62.10;;;55.07;;
22425;SDS011;11380;50.822;15.790;2023-05-19T17:04:53;63.17;;;56.37;;
22425;SDS011;11380;50.822;15.790;2023-05-19T17:10:00;59.75;;;53.45;;
22425;SDS011;11380;50.822;15.790;2023-05-19T17:15:08;61.87;;;55.17;;
22425;SDS011;11380;50.822;15.790;2023-05-19T17:20:15;62.60;;;55.97;;
22425;SDS011;11380;50.822;15.790;2023-05-19T17:25:23;62.33;;;55.57;;
22425;SDS011;11380;50.822;15.790;2023-05-19T17:30:30;60.88;;;54.63;;
22425;SDS011;11380;50.822;15.790;2023-05-19T17:35:39;61.97;;;55.00;;
22425;SDS011;11380;50.822;15.790;2023-05-19T17:40:47;63.37;;;56.60;;
22425;SDS011;11380;50.822;15.790;2023-05-19T17:45:56;63.33;;;56.47;;
22425;SDS011;11380;50.822;15.790;2023-05-19T17:51:04;62.97;;;56.27;;
22425;SDS011;11380;50.822;15.790;2023-05-19T17:56:12;69.27;;;60.60;;
22425;SDS011;11380;50.822;15.790;2023-05-19T18:01:20;63.68;;;56.95;;
22425;SDS011;11380;50.822;15.790;2023-05-19T18:06:29;64.77;;;57.67;;
22425;SDS011;11380;50.822;15.790;2023-05-19T18:11:37;64.63;;;57.63;;
22425;SDS011;11380;50.822;15.790;2023-05-19T18:16:44;63.10;;;56.42;;
22425;SDS011;11380;50.822;15.790;2023-05-19T18:21:53;63.67;;;56.67;;
22425;SDS011;11380;50.822;15.790;2023-05-19T18:27:01;63.40;;;56.60;;
22425;SDS011;11380;50.822;15.790;2023-05-19T18:32:08;64.57;;;57.17;;
22425;SDS011;11380;50.822;15.790;2023-05-19T18:37:19;64.32;;;57.33;;
22425;SDS011;11380;50.822;15.790;2023-05-19T18:42:26;64.97;;;57.63;;
22425;SDS011;11380;50.822;15.790;2023-05-19T18:47:33;67.47;;;58.43;;
22425;SDS011;11380;50.822;15.790;2023-05-19T18:52:40;67.62;;;59.00;;
22425;SDS011;11380;50.822;15.790;2023-05-19T18:57:48;72.10;;;61.00;;
22425;SDS011;11380;50.822;15.790;2023-05-19T19:02:56;73.23;;;61.77;;
22425;SDS011;11380;50.822;15.790;2023-05-19T19:08:05;68.10;;;59.93;;
22425;SDS011;11380;50.822;15.790;2023-05-19T19:13:14;66.03;;;58.70;;
22425;SDS011;11380;50.822;15.790;2023-05-19T19:18:24;66.53;;;58.13;;
22425;SDS011;11380;50.822;15.790;2023-05-19T19:23:31;68.00;;;57.80;;
22425;SDS011;11380;50.822;15.790;2023-05-19T19:28:39;68.17;;;58.37;;
22425;SDS011;11380;50.822;15.790;2023-05-19T19:33:46;64.43;;;57.60;;
22425;SDS011;11380;50.822;15.790;2023-05-19T19:38:54;66.07;;;57.90;;
22425;SDS011;11380;50.822;15.790;2023-05-19T19:44:01;69.47;;;59.00;;
22425;SDS011;11380;50.822;15.790;2023-05-19T19:49:08;65.13;;;58.03;;
22425;SDS011;11380;50.822;15.790;2023-05-19T19:54:15;67.73;;;58.27;;
22425;SDS011;11380;50.822;15.790;2023-05-19T19:59:25;66.20;;;58.97;;
22425;SDS011;11380;50.822;15.790;2023-05-19T20:04:33;64.77;;;57.67;;
22425;SDS011;11380;50.822;15.790;2023-05-19T20:09:42;65.73;;;58.50;;
22425;SDS011;11380;50.822;15.790;2023-05-19T20:14:55;65.53;;;58.43;;
22425;SDS011;11380;50.822;15.790;2023-05-19T20:20:00;63.13;;;56.43;;
22425;SDS011;11380;50.822;15.790;2023-05-19T20:25:09;68.50;;;60.00;;
22425;SDS011;11380;50.822;15.790;2023-05-19T20:30:16;72.33;;;60.93;;
22425;SDS011;11380;50.822;15.790;2023-05-19T20:35:25;77.37;;;61.47;;
22425;SDS011;11380;50.822;15.790;2023-05-19T20:40:33;70.73;;;60.60;;
22425;SDS011;11380;50.822;15.790;2023-05-19T20:45:42;73.17;;;61.80;;
22425;SDS011;11380;50.822;15.790;2023-05-19T20:50:52;71.83;;;60.23;;
22425;SDS011;11380;50.822;15.790;2023-05-19T20:55:59;68.87;;;58.47;;
22425;SDS011;11380;50.822;15.790;2023-05-19T21:01:08;67.57;;;58.47;;
22425;SDS011;11380;50.822;15.790;2023-05-19T21:06:18;70.32;;;59.30;;
22425;SDS011;11380;50.822;15.790;2023-05-19T21:11:25;67.15;;;57.27;;
22425;SDS011;11380;50.822;15.790;2023-05-19T21:16:33;63.90;;;56.03;;
22425;SDS011;11380;50.822;15.790;2023-05-19T21:21:42;61.93;;;55.33;;
22425;SDS011;11380;50.822;15.790;2023-05-19T21:26:50;62.53;;;55.20;;
22425;SDS011;11380;50.822;15.790;2023-05-19T21:31:58;62.07;;;55.47;;
22425;SDS011;11380;50.822;15.790;2023-05-19T21:37:05;60.87;;;54.57;;
22425;SDS011;11380;50.822;15.790;2023-05-19T21:42:14;61.13;;;54.87;;
22425;SDS011;11380;50.822;15.790;2023-05-19T21:47:22;60.73;;;54.50;;
22425;SDS011;11380;50.822;15.790;2023-05-19T21:52:29;60.67;;;54.40;;
22425;SDS011;11380;50.822;15.790;2023-05-19T21:57:42;60.07;;;53.93;;
22425;SDS011;11380;50.822;15.790;2023-05-19T22:02:50;61.20;;;54.70;;
22425;SDS011;11380;50.822;15.790;2023-05-19T22:07:57;60.57;;;54.07;;
22425;SDS011;11380;50.822;15.790;2023-05-19T22:13:04;60.80;;;54.27;;
22425;SDS011;11380;50.822;15.790;2023-05-19T22:18:12;61.55;;;55.03;;
22425;SDS011;11380;50.822;15.790;2023-05-19T22:23:20;59.50;;;53.20;;
22425;SDS011;11380;50.822;15.790;2023-05-19T22:28:27;59.70;;;53.55;;
22425;SDS011;11380;50.822;15.790;2023-05-19T22:33:36;60.86;;;54.60;;
22425;SDS011;11380;50.822;15.790;2023-05-19T22:38:43;60.40;;;54.20;;
22425;SDS011;11380;50.822;15.790;2023-05-19T22:43:53;61.67;;;55.17;;
22425;SDS011;11380;50.822;15.790;2023-05-19T22:49:00;61.43;;;54.83;;
22425;SDS011;11380;50.822;15.790;2023-05-19T22:54:08;60.97;;;54.57;;
22425;SDS011;11380;50.822;15.790;2023-05-19T23:04:20;60.92;;;54.60;;
22425;SDS011;11380;50.822;15.790;2023-05-19T23:09:28;60.67;;;54.45;;
22425;SDS011;11380;50.822;15.790;2023-05-19T23:14:36;60.60;;;54.20;;
22425;SDS011;11380;50.822;15.790;2023-05-19T23:19:43;60.47;;;54.10;;
22425;SDS011;11380;50.822;15.790;2023-05-19T23:24:50;59.93;;;53.65;;
22425;SDS011;11380;50.822;15.790;2023-05-19T23:29:57;62.10;;;55.40;;
22425;SDS011;11380;50.822;15.790;2023-05-19T23:35:08;62.73;;;56.07;;
22425;SDS011;11380;50.822;15.790;2023-05-19T23:40:17;62.75;;;56.10;;
22425;SDS011;11380;50.822;15.790;2023-05-19T23:45:24;62.43;;;55.73;;
22425;SDS011;11380;50.822;15.790;2023-05-19T23:50:32;65.20;;;57.40;;
22425;SDS011;11380;50.822;15.790;2023-05-19T23:55:43;63.07;;;56.27;;
